createdAt,value
2018-12-31T00:01:21.164Z,6.60
2018-12-31T00:03:51.454Z,6.70
2018-12-31T00:06:21.539Z,7.00
2018-12-31T00:08:51.561Z,7.00
2018-12-31T00:11:21.668Z,7.00
2018-12-31T00:13:51.626Z,7.10
2018-12-31T00:16:21.745Z,7.20
2018-12-31T00:18:51.937Z,7.10
2018-12-31T00:21:22.053Z,7.10
2018-12-31T00:23:52.106Z,7.30
2018-12-31T00:26:22.193Z,7.50
2018-12-31T00:28:52.311Z,7.50
2018-12-31T00:31:23.401Z,7.40
2018-12-31T00:33:53.408Z,7.50
2018-12-31T00:36:23.897Z,7.50
2018-12-31T00:38:54.162Z,7.60
2018-12-31T00:41:24.233Z,7.40
2018-12-31T00:43:54.306Z,7.30
2018-12-31T00:46:24.334Z,7.30
2018-12-31T00:48:54.412Z,7.40
2018-12-31T00:51:24.622Z,7.50
2018-12-31T00:53:54.677Z,7.60
2018-12-31T00:56:24.727Z,7.40
2018-12-31T00:58:54.909Z,7.40
2018-12-31T01:01:24.864Z,7.30
2018-12-31T01:03:55.011Z,7.40
2018-12-31T01:06:25.207Z,7.50
2018-12-31T01:08:55.208Z,7.40
2018-12-31T01:11:25.368Z,7.40
2018-12-31T01:13:55.525Z,7.50
2018-12-31T01:16:25.616Z,7.60
2018-12-31T01:18:55.653Z,7.50
2018-12-31T01:21:25.796Z,7.60
2018-12-31T01:23:55.948Z,7.50
2018-12-31T01:26:26.074Z,7.70
2018-12-31T01:28:56.170Z,7.70
2018-12-31T01:31:26.349Z,7.80
2018-12-31T01:33:56.853Z,7.80
2018-12-31T01:36:26.928Z,8.00
2018-12-31T01:38:56.973Z,8.10
2018-12-31T01:41:27.013Z,8.00
2018-12-31T01:43:57.073Z,8.00
2018-12-31T01:46:27.282Z,7.80
2018-12-31T01:48:58.254Z,7.70
2018-12-31T01:51:28.321Z,7.50
2018-12-31T01:53:58.309Z,7.50
2018-12-31T01:56:29.227Z,7.50
2018-12-31T01:58:59.272Z,7.50
2018-12-31T02:01:29.334Z,7.50
2018-12-31T02:03:59.429Z,7.40
2018-12-31T02:06:29.639Z,7.40
2018-12-31T02:08:59.811Z,7.50
2018-12-31T02:11:29.856Z,7.60
2018-12-31T02:13:59.915Z,7.60
2018-12-31T02:16:30.281Z,7.50
2018-12-31T02:19:00.371Z,7.40
2018-12-31T02:21:30.452Z,7.40
2018-12-31T02:24:00.621Z,7.40
2018-12-31T02:26:30.654Z,7.40
2018-12-31T02:29:00.816Z,7.50
2018-12-31T02:31:30.981Z,7.60
2018-12-31T02:34:01.006Z,7.70
2018-12-31T02:36:31.152Z,7.80
2018-12-31T02:39:01.205Z,7.90
2018-12-31T02:41:32.185Z,7.80
2018-12-31T02:44:02.415Z,7.60
2018-12-31T02:46:32.436Z,7.50
2018-12-31T02:49:02.807Z,7.30
2018-12-31T02:51:32.925Z,7.30
2018-12-31T02:54:03.044Z,7.20
2018-12-31T02:56:33.062Z,7.40
2018-12-31T02:59:03.232Z,7.40
2018-12-31T03:01:33.297Z,7.40
2018-12-31T03:04:03.320Z,7.30
2018-12-31T03:06:33.470Z,7.30
2018-12-31T03:09:05.469Z,7.30
2018-12-31T03:11:35.762Z,7.40
2018-12-31T03:14:05.819Z,7.40
2018-12-31T03:16:35.980Z,7.30
2018-12-31T03:19:06.147Z,7.30
2018-12-31T03:21:36.311Z,7.50
2018-12-31T03:24:06.749Z,7.40
2018-12-31T03:26:36.870Z,7.40
2018-12-31T03:29:06.910Z,7.50
2018-12-31T03:31:36.945Z,7.40
2018-12-31T03:34:07.190Z,7.60
2018-12-31T03:36:37.227Z,7.80
2018-12-31T03:39:07.734Z,7.80
2018-12-31T03:41:37.760Z,7.80
2018-12-31T03:44:07.919Z,7.60
2018-12-31T03:46:37.921Z,7.40
2018-12-31T03:49:08.025Z,7.40
2018-12-31T03:51:38.117Z,7.50
2018-12-31T03:54:08.512Z,7.50
2018-12-31T03:56:39.557Z,7.50
2018-12-31T03:59:12.479Z,7.40
2018-12-31T04:01:42.586Z,7.40
2018-12-31T04:04:12.570Z,7.30
2018-12-31T04:06:42.840Z,7.30
2018-12-31T04:09:12.936Z,7.30
2018-12-31T04:11:43.000Z,7.20
2018-12-31T04:14:13.078Z,7.30
2018-12-31T04:16:43.106Z,7.30
2018-12-31T04:19:13.168Z,7.40
2018-12-31T04:21:43.601Z,7.50
2018-12-31T04:24:13.679Z,7.50
2018-12-31T04:26:43.832Z,7.50
2018-12-31T04:29:13.880Z,7.40
2018-12-31T04:31:44.017Z,7.40
2018-12-31T04:34:14.152Z,7.40
2018-12-31T04:36:44.248Z,7.50
2018-12-31T04:39:14.265Z,7.50
2018-12-31T04:41:44.348Z,7.40
2018-12-31T04:44:17.227Z,7.40
2018-12-31T04:46:47.277Z,7.50
2018-12-31T04:49:17.474Z,7.70
2018-12-31T04:51:47.590Z,7.80
2018-12-31T04:54:17.717Z,8.00
2018-12-31T04:56:48.653Z,8.00
2018-12-31T04:59:18.717Z,8.10
2018-12-31T05:01:48.832Z,8.20
2018-12-31T05:04:18.810Z,8.40
2018-12-31T05:06:48.873Z,8.50
2018-12-31T05:09:19.018Z,8.40
2018-12-31T05:11:49.891Z,8.10
2018-12-31T05:14:20.269Z,8.20
2018-12-31T05:16:50.373Z,8.30
2018-12-31T05:19:20.533Z,8.30
2018-12-31T05:21:51.135Z,8.40
2018-12-31T05:24:21.121Z,8.40
2018-12-31T05:26:51.300Z,8.60
2018-12-31T05:29:21.378Z,8.40
2018-12-31T05:31:51.372Z,8.40
2018-12-31T05:34:21.539Z,8.50
2018-12-31T05:36:51.577Z,8.50
2018-12-31T05:39:21.682Z,8.60
2018-12-31T05:41:51.870Z,8.60
2018-12-31T05:44:21.977Z,8.80
2018-12-31T05:46:52.065Z,8.80
2018-12-31T05:49:22.103Z,8.80
2018-12-31T05:51:52.125Z,8.80
2018-12-31T05:54:22.239Z,8.70
2018-12-31T05:56:52.340Z,8.90
2018-12-31T05:59:22.386Z,8.60
2018-12-31T06:01:52.545Z,8.70
2018-12-31T06:04:22.577Z,8.60
2018-12-31T06:06:53.090Z,8.80
2018-12-31T06:09:23.348Z,8.80
2018-12-31T06:11:53.413Z,8.60
2018-12-31T06:14:23.624Z,8.80
2018-12-31T06:16:53.812Z,8.90
2018-12-31T06:19:23.790Z,8.90
2018-12-31T06:21:54.022Z,8.80
2018-12-31T06:24:24.091Z,8.60
2018-12-31T06:26:54.131Z,8.60
2018-12-31T06:29:24.252Z,8.70
2018-12-31T06:31:54.388Z,8.90
2018-12-31T06:34:24.348Z,8.90
2018-12-31T06:36:54.451Z,9.00
2018-12-31T06:39:24.507Z,8.90
2018-12-31T06:41:54.617Z,8.90
2018-12-31T06:44:24.772Z,8.90
2018-12-31T06:46:55.893Z,8.90
2018-12-31T06:49:26.170Z,9.00
2018-12-31T06:51:56.288Z,9.10
2018-12-31T06:54:26.350Z,9.00
2018-12-31T06:56:57.424Z,8.80
2018-12-31T06:59:27.468Z,8.90
2018-12-31T07:01:57.599Z,8.70
2018-12-31T07:04:27.768Z,8.70
2018-12-31T07:06:57.749Z,8.80
2018-12-31T07:09:27.941Z,8.70
2018-12-31T07:11:58.069Z,8.60
2018-12-31T07:14:28.090Z,8.40
2018-12-31T07:16:58.271Z,8.30
2018-12-31T07:19:28.314Z,8.30
2018-12-31T07:21:58.341Z,8.20
2018-12-31T07:24:28.464Z,8.30
2018-12-31T07:26:58.645Z,8.40
2018-12-31T07:29:28.649Z,8.40
2018-12-31T07:31:58.751Z,8.30
2018-12-31T07:34:28.882Z,8.30
2018-12-31T07:36:59.125Z,8.50
2018-12-31T07:39:29.197Z,8.50
2018-12-31T07:41:59.361Z,8.50
2018-12-31T07:44:29.633Z,8.40
2018-12-31T07:46:59.590Z,8.40
2018-12-31T07:49:29.768Z,8.40
2018-12-31T07:52:01.002Z,8.70
2018-12-31T07:54:30.963Z,8.90
2018-12-31T07:57:01.293Z,8.80
2018-12-31T07:59:31.272Z,8.80
2018-12-31T08:02:01.291Z,8.80
2018-12-31T08:04:31.366Z,8.70
2018-12-31T08:07:01.625Z,8.50
2018-12-31T08:09:31.830Z,8.40
2018-12-31T08:12:03.217Z,8.50
2018-12-31T08:14:35.631Z,8.70
2018-12-31T08:17:05.770Z,8.80
2018-12-31T08:19:35.893Z,8.60
2018-12-31T08:22:06.148Z,8.70
2018-12-31T08:24:36.373Z,8.70
2018-12-31T08:27:06.630Z,8.80
2018-12-31T08:29:37.225Z,8.80
2018-12-31T08:32:08.080Z,8.90
2018-12-31T08:34:38.757Z,9.10
2018-12-31T08:37:11.954Z,9.20
2018-12-31T08:39:43.540Z,9.40
2018-12-31T08:42:13.594Z,9.40
2018-12-31T08:44:43.666Z,9.50
2018-12-31T08:47:13.852Z,9.50
2018-12-31T08:49:43.923Z,9.50
2018-12-31T08:52:14.024Z,9.70
2018-12-31T08:54:44.153Z,9.70
2018-12-31T08:57:14.339Z,9.70
2018-12-31T08:59:44.933Z,9.80
2018-12-31T09:02:15.050Z,9.80
2018-12-31T09:04:45.130Z,9.80
2018-12-31T09:07:15.479Z,9.80
2018-12-31T09:09:45.665Z,9.70
2018-12-31T09:12:15.816Z,9.80
2018-12-31T09:14:45.792Z,9.80
2018-12-31T09:17:15.892Z,9.70
2018-12-31T09:19:45.971Z,9.70
2018-12-31T09:22:16.070Z,9.60
2018-12-31T09:24:46.139Z,9.30
2018-12-31T09:27:16.192Z,9.00
2018-12-31T09:29:46.248Z,8.90
2018-12-31T09:32:16.496Z,8.90
2018-12-31T09:34:46.604Z,8.90
2018-12-31T09:37:16.620Z,8.90
2018-12-31T09:39:46.849Z,8.90
2018-12-31T09:42:16.946Z,8.80
2018-12-31T09:44:47.555Z,8.80
2018-12-31T09:47:17.598Z,8.80
2018-12-31T09:49:47.840Z,8.70
2018-12-31T09:52:18.240Z,9.00
2018-12-31T09:54:48.382Z,8.90
2018-12-31T09:57:18.674Z,8.90
2018-12-31T09:59:48.877Z,8.90
2018-12-31T10:02:19.230Z,8.80
2018-12-31T10:04:49.406Z,9.00
2018-12-31T10:07:19.523Z,9.00
2018-12-31T10:09:49.573Z,8.80
2018-12-31T10:12:19.661Z,8.90
2018-12-31T10:14:49.765Z,9.00
2018-12-31T10:17:19.834Z,9.00
2018-12-31T10:19:49.933Z,8.90
2018-12-31T10:22:19.902Z,8.90
2018-12-31T10:24:50.179Z,9.00
2018-12-31T10:27:20.159Z,9.00
2018-12-31T10:29:50.214Z,9.20
2018-12-31T10:32:20.176Z,9.30
2018-12-31T10:34:50.280Z,9.40
2018-12-31T10:37:20.296Z,9.50
2018-12-31T10:39:50.342Z,9.50
2018-12-31T10:42:20.433Z,9.70
2018-12-31T10:44:50.491Z,9.90
2018-12-31T10:47:20.528Z,10.00
2018-12-31T10:49:50.536Z,10.10
2018-12-31T10:52:20.785Z,10.20
2018-12-31T10:54:50.872Z,10.20
2018-12-31T10:57:23.085Z,10.20
2018-12-31T10:59:53.214Z,10.30
2018-12-31T11:02:23.408Z,10.20
2018-12-31T11:04:53.397Z,10.10
2018-12-31T11:07:23.662Z,10.20
2018-12-31T11:09:53.730Z,10.20
2018-12-31T11:12:23.851Z,10.20
2018-12-31T11:14:53.881Z,10.20
2018-12-31T11:17:23.943Z,10.00
2018-12-31T11:19:53.969Z,9.80
2018-12-31T11:22:24.069Z,10.00
2018-12-31T11:24:54.127Z,10.20
2018-12-31T11:27:24.323Z,10.30
2018-12-31T11:29:54.698Z,10.60
2018-12-31T11:32:24.638Z,10.70
2018-12-31T11:34:54.719Z,10.80
2018-12-31T11:37:24.768Z,10.90
2018-12-31T11:39:56.440Z,10.90
2018-12-31T11:42:26.609Z,10.90
2018-12-31T11:44:59.185Z,11.00
2018-12-31T11:47:29.358Z,11.00
2018-12-31T11:49:59.719Z,11.00
2018-12-31T11:52:30.013Z,10.90
2018-12-31T11:55:00.243Z,11.10
2018-12-31T11:57:30.411Z,11.10
2018-12-31T12:00:00.592Z,11.30
2018-12-31T12:02:33.486Z,11.30
2018-12-31T12:05:05.872Z,11.40
2018-12-31T12:07:36.220Z,11.40
2018-12-31T12:10:06.499Z,11.50
2018-12-31T12:12:37.570Z,11.50
2018-12-31T12:15:07.798Z,11.50
2018-12-31T12:17:37.910Z,11.40
2018-12-31T12:20:08.133Z,11.40
2018-12-31T12:22:38.281Z,11.40
2018-12-31T12:25:08.422Z,11.40
2018-12-31T12:27:38.587Z,11.40
2018-12-31T12:30:09.186Z,11.30
2018-12-31T12:32:52.215Z,11.10
2018-12-31T12:35:22.332Z,11.00
2018-12-31T12:37:52.508Z,10.90
2018-12-31T12:40:22.705Z,11.00
2018-12-31T12:42:54.050Z,11.00
2018-12-31T12:45:24.152Z,11.10
2018-12-31T12:47:54.397Z,11.20
2018-12-31T12:50:26.323Z,11.30
2018-12-31T12:52:57.976Z,11.20
2018-12-31T12:55:29.861Z,11.10
2018-12-31T12:58:02.892Z,10.70
2018-12-31T13:00:33.479Z,10.50
2018-12-31T13:03:03.642Z,10.70
2018-12-31T13:05:33.833Z,11.00
2018-12-31T13:08:04.040Z,11.20
2018-12-31T13:10:34.277Z,11.20
2018-12-31T13:13:04.564Z,11.10
2018-12-31T13:15:34.827Z,11.10
2018-12-31T13:18:06.022Z,11.30
2018-12-31T13:20:36.039Z,11.30
2018-12-31T13:23:07.439Z,11.30
2018-12-31T13:25:37.530Z,11.40
2018-12-31T13:28:07.718Z,11.30
2018-12-31T13:30:43.515Z,11.40
2018-12-31T13:33:13.931Z,11.40
2018-12-31T13:35:43.887Z,11.40
2018-12-31T13:38:15.449Z,11.30
2018-12-31T13:40:46.165Z,11.00
2018-12-31T13:43:16.179Z,11.00
2018-12-31T13:45:46.250Z,11.00
2018-12-31T13:48:16.659Z,11.10
2018-12-31T13:50:46.948Z,11.20
2018-12-31T13:53:19.783Z,11.30
2018-12-31T13:55:49.850Z,11.30
2018-12-31T13:58:20.786Z,11.40
2018-12-31T14:00:50.857Z,11.50
2018-12-31T14:03:21.141Z,11.60
2018-12-31T14:05:51.157Z,11.60
2018-12-31T14:08:21.220Z,11.60
2018-12-31T14:10:51.515Z,11.60
2018-12-31T14:13:21.732Z,11.70
2018-12-31T14:15:53.399Z,11.60
2018-12-31T14:18:23.441Z,11.60
2018-12-31T14:20:53.568Z,11.60
2018-12-31T14:23:26.064Z,11.60
2018-12-31T14:25:56.269Z,11.70
2018-12-31T14:28:26.331Z,11.60
2018-12-31T14:30:56.380Z,11.60
2018-12-31T14:33:26.547Z,11.60
2018-12-31T14:35:58.281Z,11.60
2018-12-31T14:38:28.356Z,11.60
2018-12-31T14:40:58.522Z,11.60
2018-12-31T14:43:28.879Z,11.50
2018-12-31T14:45:59.008Z,11.50
2018-12-31T14:48:29.210Z,11.50
2018-12-31T14:50:59.361Z,11.40
2018-12-31T14:53:29.467Z,11.40
2018-12-31T14:55:59.797Z,11.40
2018-12-31T14:58:29.911Z,11.10
2018-12-31T15:01:00.470Z,11.10
2018-12-31T15:03:30.764Z,10.90
2018-12-31T15:06:00.878Z,10.90
2018-12-31T15:08:31.107Z,10.80
2018-12-31T15:11:01.250Z,10.80
2018-12-31T15:13:31.392Z,10.70
2018-12-31T15:16:01.468Z,10.70
2018-12-31T15:18:31.858Z,10.70
2018-12-31T15:21:02.070Z,10.70
2018-12-31T15:23:32.268Z,10.70
2018-12-31T15:26:02.571Z,10.70
2018-12-31T15:28:32.702Z,10.60
2018-12-31T15:31:02.762Z,10.60
2018-12-31T15:33:32.942Z,10.40
2018-12-31T15:36:03.217Z,10.30
2018-12-31T15:38:33.536Z,10.20
2018-12-31T15:41:04.186Z,10.00
2018-12-31T15:43:34.417Z,10.00
2018-12-31T15:46:04.796Z,9.80
2018-12-31T15:48:34.842Z,9.60
2018-12-31T15:51:05.017Z,9.40
2018-12-31T15:53:36.882Z,9.40
2018-12-31T15:56:07.080Z,9.30
2018-12-31T15:58:38.273Z,9.20
2018-12-31T16:01:08.542Z,9.20
2018-12-31T16:03:38.690Z,9.20
2018-12-31T16:06:08.953Z,9.20
2018-12-31T16:08:40.309Z,9.20
2018-12-31T16:11:10.421Z,9.40
2018-12-31T16:13:40.465Z,9.40
2018-12-31T16:16:10.588Z,9.40
2018-12-31T16:18:40.752Z,9.50
2018-12-31T16:21:12.377Z,9.60
2018-12-31T16:23:43.522Z,9.70
2018-12-31T16:26:16.794Z,9.50
2018-12-31T16:28:46.944Z,9.60
2018-12-31T16:31:17.141Z,9.40
2018-12-31T16:33:47.302Z,9.40
2018-12-31T16:36:17.453Z,9.20
2018-12-31T16:38:47.597Z,9.40
2018-12-31T16:41:17.717Z,9.50
2018-12-31T16:43:50.125Z,9.50
2018-12-31T16:46:20.247Z,9.50
2018-12-31T16:48:50.273Z,9.50
2018-12-31T16:51:20.441Z,9.60
2018-12-31T16:53:50.512Z,9.70
2018-12-31T16:56:20.540Z,9.40
2018-12-31T16:58:51.424Z,9.50
2018-12-31T17:01:21.836Z,9.40
2018-12-31T17:03:51.848Z,9.40
2018-12-31T17:06:21.891Z,9.30
2018-12-31T17:08:51.886Z,9.30
2018-12-31T17:11:22.103Z,9.20
2018-12-31T17:13:52.271Z,9.40
2018-12-31T17:16:24.234Z,9.40
2018-12-31T17:18:54.356Z,9.20
2018-12-31T17:21:25.420Z,8.90
2018-12-31T17:23:55.392Z,9.00
2018-12-31T17:26:25.508Z,9.10
2018-12-31T17:28:55.480Z,9.00
2018-12-31T17:31:25.645Z,9.00
2018-12-31T17:33:55.677Z,9.00
2018-12-31T17:36:26.160Z,9.00
2018-12-31T17:38:56.177Z,8.80
2018-12-31T17:41:26.155Z,8.80
2018-12-31T17:43:57.316Z,8.90
2018-12-31T17:46:27.477Z,8.70
2018-12-31T17:48:57.689Z,8.80
2018-12-31T17:51:27.884Z,8.70
2018-12-31T17:53:57.846Z,8.70
2018-12-31T17:56:27.993Z,8.80
2018-12-31T17:58:58.178Z,8.50
2018-12-31T18:01:28.311Z,8.60
2018-12-31T18:03:58.484Z,8.70
2018-12-31T18:06:28.571Z,8.80
2018-12-31T18:08:58.636Z,8.60
2018-12-31T18:11:29.104Z,8.60
2018-12-31T18:13:59.153Z,8.50
2018-12-31T18:16:29.300Z,8.40
2018-12-31T18:18:59.436Z,8.50
2018-12-31T18:21:29.576Z,8.70
2018-12-31T18:23:59.806Z,8.60
2018-12-31T18:26:30.003Z,8.70
2018-12-31T18:29:02.873Z,8.60
2018-12-31T18:31:32.899Z,8.40
2018-12-31T18:34:03.312Z,8.60
2018-12-31T18:36:33.381Z,8.50
2018-12-31T18:39:05.231Z,8.60
2018-12-31T18:41:36.082Z,8.50
2018-12-31T18:44:06.313Z,8.60
2018-12-31T18:46:37.332Z,8.30
2018-12-31T18:49:08.501Z,8.40
2018-12-31T18:51:38.579Z,8.50
2018-12-31T18:54:10.197Z,8.60
2018-12-31T18:56:40.493Z,8.50
2018-12-31T18:59:10.674Z,8.50
2018-12-31T19:01:41.028Z,8.50
2018-12-31T19:04:11.169Z,8.50
2018-12-31T19:06:41.477Z,8.50
2018-12-31T19:09:11.840Z,8.50
2018-12-31T19:11:41.911Z,8.40
2018-12-31T19:14:19.739Z,8.30
2018-12-31T19:16:49.791Z,8.40
2018-12-31T19:19:20.156Z,8.40
2018-12-31T19:40:38.388Z,10.90
2018-12-31T19:43:09.494Z,13.80
2018-12-31T19:45:40.658Z,14.40
2018-12-31T19:48:10.917Z,14.90
2018-12-31T19:50:41.115Z,15.20
2018-12-31T19:53:11.236Z,15.50
2018-12-31T19:55:41.449Z,15.80
2018-12-31T20:31:46.733Z,17.10
2018-12-31T20:34:20.064Z,16.60
2018-12-31T20:36:53.705Z,15.80
2018-12-31T20:39:25.119Z,14.90
2018-12-31T20:41:56.556Z,13.90
2018-12-31T20:44:28.187Z,13.00
2018-12-31T20:46:59.743Z,12.20
2018-12-31T20:49:31.561Z,11.50
2018-12-31T20:52:03.220Z,10.90
2018-12-31T20:54:36.315Z,10.30
2018-12-31T20:57:07.825Z,9.90
2018-12-31T20:59:40.795Z,9.50
2018-12-31T21:02:12.351Z,9.10
2018-12-31T21:04:43.902Z,8.80
2018-12-31T21:07:15.419Z,8.40
2018-12-31T21:09:46.833Z,8.10
2018-12-31T21:12:24.134Z,8.00
2018-12-31T21:14:55.454Z,7.90
2018-12-31T21:17:26.955Z,7.90
2018-12-31T21:19:58.342Z,7.90
2018-12-31T21:22:29.639Z,7.80
2018-12-31T21:25:04.059Z,7.80
2018-12-31T21:27:35.778Z,7.80
2018-12-31T21:30:11.736Z,7.70
2018-12-31T21:32:44.142Z,7.70
2018-12-31T21:35:15.527Z,7.70
2018-12-31T21:37:47.177Z,7.70
2018-12-31T21:40:21.941Z,7.70
2018-12-31T21:42:53.340Z,7.70
2018-12-31T21:45:26.191Z,7.70
2018-12-31T21:47:59.576Z,7.70
2018-12-31T21:50:30.930Z,7.70
2018-12-31T21:53:02.242Z,7.80
2018-12-31T21:55:33.608Z,7.70
2018-12-31T21:58:05.210Z,7.60
2018-12-31T22:00:36.686Z,7.70
2018-12-31T22:03:08.235Z,7.80
2018-12-31T22:05:39.797Z,7.90
2018-12-31T22:08:11.235Z,7.90
2018-12-31T22:10:42.753Z,8.00
2018-12-31T22:13:14.188Z,8.10
2018-12-31T22:15:45.884Z,8.10
2018-12-31T22:18:19.052Z,8.20
2018-12-31T22:20:50.777Z,8.20
2018-12-31T22:23:22.136Z,8.20
2018-12-31T22:25:53.587Z,8.20
2018-12-31T22:28:24.951Z,8.30
2018-12-31T22:30:56.340Z,8.30
2018-12-31T22:33:31.372Z,8.30
2018-12-31T22:36:02.981Z,8.30
2018-12-31T22:38:34.698Z,8.30
2018-12-31T22:41:06.311Z,8.30
2018-12-31T22:43:37.805Z,8.30
2018-12-31T22:46:09.241Z,8.30
2018-12-31T22:48:42.279Z,8.30
2018-12-31T22:51:13.625Z,8.30
2018-12-31T22:53:45.119Z,8.20
2018-12-31T22:56:16.650Z,8.30
2018-12-31T22:58:48.146Z,8.30
2018-12-31T23:01:19.595Z,8.30
2018-12-31T23:03:51.277Z,8.20
2018-12-31T23:06:22.856Z,8.20
2018-12-31T23:08:54.293Z,8.20
2018-12-31T23:11:25.708Z,8.20
2018-12-31T23:13:57.657Z,8.20
2018-12-31T23:16:29.117Z,8.20
2018-12-31T23:19:00.422Z,8.30
2018-12-31T23:21:32.026Z,8.30
2018-12-31T23:24:03.568Z,8.30
2018-12-31T23:26:35.197Z,8.20
2018-12-31T23:29:06.801Z,8.20
2018-12-31T23:31:38.102Z,8.20
2018-12-31T23:34:09.665Z,8.30
2018-12-31T23:36:41.366Z,8.30
2018-12-31T23:39:12.797Z,8.30
2018-12-31T23:41:44.167Z,8.30
2018-12-31T23:44:15.569Z,8.30
2018-12-31T23:46:53.649Z,8.30
2018-12-31T23:49:26.696Z,8.20
2018-12-31T23:51:58.155Z,8.20
2018-12-31T23:54:29.771Z,8.20
2018-12-31T23:57:01.421Z,8.20
2018-12-31T23:59:32.872Z,8.20
